Time;durP1;ratioP1;P1;durP2;ratioP2;P2;SDS_P1;SDS_P2;PMS_P1;PMS_P2;Temp;Humidity;BMP_temperature;BMP_pressure;BME280_temperature;BME280_humidity;BME280_pressure;Samples;Min_cycle;Max_cycle;Signal;HPM_P1;HPM_P2
2022/09/26 00:00:35;;;;;;;8.10;6.60;;;12.80;99.50;;;;;;5119928;28;20490;-45
2022/09/26 00:03:00;;;;;;;8.03;7.23;;;12.80;99.60;;;;;;5101195;28;20443;-46
2022/09/26 00:05:26;;;;;;;7.40;6.70;;;12.70;99.60;;;;;;5120010;28;20440;-47
2022/09/26 00:07:52;;;;;;;7.40;6.70;;;12.70;99.60;;;;;;5084452;28;20204;-46
2022/09/26 00:10:17;;;;;;;7.37;6.77;;;12.60;99.60;;;;;;5119218;28;20208;-46
2022/09/26 00:12:44;;;;;;;7.90;7.20;;;12.60;99.50;;;;;;5101760;28;20575;-47
2022/09/26 00:15:10;;;;;;;8.67;7.23;;;12.50;99.50;;;;;;5119424;28;20199;-49
2022/09/26 00:17:36;;;;;;;7.73;7.03;;;12.50;99.50;;;;;;5119521;28;20410;-47
2022/09/26 00:20:01;;;;;;;7.57;6.87;;;12.40;99.50;;;;;;5118714;28;20716;-44
2022/09/26 00:22:27;;;;;;;7.73;6.93;;;12.40;99.50;;;;;;5118695;28;20183;-46
2022/09/26 00:24:53;;;;;;;8.37;7.57;;;12.30;99.40;;;;;;5119270;28;20181;-44
2022/09/26 00:27:19;;;;;;;7.23;6.63;;;12.30;99.40;;;;;;5119086;28;20434;-45
2022/09/26 00:29:45;;;;;;;8.73;7.93;;;12.30;99.40;;;;;;5118567;28;20288;-46
2022/09/26 00:32:10;;;;;;;8.03;7.27;;;12.20;99.30;;;;;;5116785;28;20824;-48
2022/09/26 00:34:36;;;;;;;7.83;7.03;;;12.20;99.30;;;;;;5119299;28;20172;-45
2022/09/26 00:37:02;;;;;;;8.00;7.30;;;12.10;99.30;;;;;;5119037;28;20165;-47
2022/09/26 00:39:27;;;;;;;7.30;6.70;;;12.00;99.20;;;;;;5101122;28;20226;-43
2022/09/26 00:41:53;;;;;;;7.27;6.57;;;12.00;99.30;;;;;;5118775;28;20176;-44
2022/09/26 00:44:47;;;;;;;8.63;7.73;;;11.90;99.20;;;;;;5119073;28;20240;-44
2022/09/26 00:47:28;;;;;;;8.23;7.53;;;11.90;99.30;;;;;;5119166;28;20402;-44
2022/09/26 00:50:14;;;;;;;8.07;7.27;;;11.90;99.30;;;;;;5119220;28;20686;-43
2022/09/26 00:53:01;;;;;;;8.73;7.90;;;11.80;99.20;;;;;;5100761;28;20562;-45
2022/09/26 00:55:31;;;;;;;8.40;7.60;;;11.80;99.30;;;;;;5097434;28;20475;-43
2022/09/26 00:58:03;;;;;;;8.57;7.87;;;11.80;99.30;;;;;;5096999;28;20800;-46
2022/09/26 01:00:29;;;;;;;8.77;7.97;;;11.70;99.30;;;;;;5096955;28;20442;-43
2022/09/26 01:02:55;;;;;;;8.53;7.60;;;11.70;99.30;;;;;;5096988;28;20681;-44
2022/09/26 01:05:22;;;;;;;8.23;7.13;;;11.60;99.30;;;;;;5097542;28;20794;-44
2022/09/26 01:07:49;;;;;;;7.90;7.13;;;11.60;99.30;;;;;;5097484;28;20484;-45
2022/09/26 01:10:15;;;;;;;9.13;7.93;;;11.60;99.30;;;;;;5097986;28;20556;-45
2022/09/26 01:12:40;;;;;;;8.57;7.70;;;11.50;99.30;;;;;;5097234;28;20409;-46
2022/09/26 01:15:07;;;;;;;9.70;7.20;;;11.50;99.30;;;;;;5097209;28;20227;-45
2022/09/26 01:17:35;;;;;;;9.80;8.90;;;11.50;99.30;;;;;;5098240;28;20766;-47
2022/09/26 01:20:16;;;;;;;8.73;7.83;;;11.40;99.20;;;;;;5096810;28;20479;-44
2022/09/26 01:23:19;;;;;;;8.10;7.20;;;11.40;99.20;;;;;;5096305;28;20539;-45
2022/09/26 01:26:24;;;;;;;13.30;8.13;;;11.40;99.20;;;;;;5098121;28;20837;-45
2022/09/26 01:29:23;;;;;;;8.70;7.90;;;11.30;99.20;;;;;;5098099;28;20458;-44
2022/09/26 01:35:04;;;;;;;8.77;7.97;;;11.30;99.10;;;;;;5097523;28;20472;-45
2022/09/26 01:37:41;;;;;;;8.93;8.03;;;11.30;99.20;;;;;;5097801;28;20487;-46
2022/09/26 01:40:30;;;;;;;9.13;8.33;;;11.20;99.40;;;;;;5096703;28;20410;-48
2022/09/26 01:43:20;;;;;;;7.70;6.90;;;11.20;99.10;;;;;;5097217;28;20430;-44
2022/09/26 01:46:00;;;;;;;9.30;7.87;;;11.10;99.10;;;;;;5101331;28;20715;-49
2022/09/26 01:48:30;;;;;;;9.33;7.80;;;11.20;99.20;;;;;;5101661;28;20406;-45
2022/09/26 01:51:13;;;;;;;8.70;7.90;;;11.10;99.10;;;;;;5101248;28;20458;-44
2022/09/26 01:53:46;;;;;;;9.00;8.10;;;11.10;99.20;;;;;;5101893;28;20765;-45
2022/09/26 01:56:18;;;;;;;7.73;7.10;;;11.10;99.20;;;;;;5100493;28;20524;-46
2022/09/26 01:58:54;;;;;;;8.33;7.53;;;11.10;99.20;;;;;;5100577;28;20442;-45
2022/09/26 02:01:20;;;;;;;9.40;8.50;;;11.10;99.30;;;;;;5101099;28;20688;-47
2022/09/26 02:03:51;;;;;;;8.70;8.00;;;11.10;99.30;;;;;;5100806;28;20422;-46
2022/09/26 02:06:41;;;;;;;9.27;8.30;;;11.10;99.40;;;;;;5100966;28;20403;-44
2022/09/26 02:09:12;;;;;;;8.43;7.63;;;11.10;99.40;;;;;;5101496;28;20419;-45
2022/09/26 02:11:40;;;;;;;9.60;8.60;;;11.10;99.40;;;;;;5100104;28;20525;-46
2022/09/26 02:14:16;;;;;;;9.90;8.90;;;11.10;99.40;;;;;;5101368;28;20696;-46
2022/09/26 02:17:05;;;;;;;10.73;9.07;;;11.00;99.40;;;;;;5101478;28;20411;-45
2022/09/26 02:19:55;;;;;;;10.40;9.30;;;11.00;99.40;;;;;;5101405;28;20509;-43
2022/09/26 02:22:24;;;;;;;10.87;9.43;;;11.10;99.50;;;;;;5101056;28;20537;-47
2022/09/26 02:24:51;;;;;;;10.00;9.00;;;11.00;99.50;;;;;;5100713;28;20434;-46
2022/09/26 02:27:17;;;;;;;9.33;8.40;;;11.00;99.60;;;;;;5100114;28;20445;-46
2022/09/26 02:29:43;;;;;;;9.90;9.00;;;11.00;99.70;;;;;;5100396;28;20857;-45
2022/09/26 02:32:14;;;;;;;11.07;9.70;;;11.00;99.70;;;;;;5100651;28;20184;-49
2022/09/26 02:34:41;;;;;;;10.57;9.57;;;11.00;99.70;;;;;;5101055;28;20427;-46
2022/09/26 02:37:08;;;;;;;11.10;8.50;;;11.00;99.80;;;;;;5099816;28;20417;-45
2022/09/26 02:39:34;;;;;;;9.20;8.30;;;11.10;99.90;;;;;;5100659;28;20439;-46
2022/09/26 02:42:06;;;;;;;8.90;8.10;;;11.10;99.90;;;;;;5098947;28;20414;-46
2022/09/26 02:44:43;;;;;;;9.07;8.27;;;11.10;99.90;;;;;;5100266;28;20467;-47
2022/09/26 02:47:12;;;;;;;8.13;7.43;;;11.00;99.90;;;;;;5099748;28;20436;-45
2022/09/26 02:49:48;;;;;;;8.70;7.90;;;11.10;99.90;;;;;;5100019;28;20466;-45
2022/09/26 02:52:35;;;;;;;8.33;7.53;;;11.10;99.90;;;;;;5099662;28;20425;-44
2022/09/26 02:55:12;;;;;;;7.53;6.83;;;11.10;99.90;;;;;;5109942;28;20469;-47
2022/09/26 02:58:04;;;;;;;7.20;6.60;;;11.10;99.90;;;;;;5120356;28;20678;-47
2022/09/26 03:01:14;;;;;;;8.10;6.83;;;11.10;99.90;;;;;;5120208;28;20423;-45
2022/09/26 03:03:44;;;;;;;7.40;6.70;;;11.10;99.90;;;;;;5100999;28;20434;-49
2022/09/26 03:06:12;;;;;;;8.97;8.10;;;11.10;99.90;;;;;;5118830;28;20410;-48
2022/09/26 03:08:44;;;;;;;7.33;6.63;;;11.20;99.90;;;;;;5119194;28;20433;-47
2022/09/26 03:11:13;;;;;;;7.80;7.10;;;11.10;99.90;;;;;;5100894;28;20461;-45
2022/09/26 03:13:39;;;;;;;8.00;7.23;;;11.10;99.90;;;;;;5118765;28;20512;-48
2022/09/26 03:16:06;;;;;;;8.53;7.73;;;11.20;99.90;;;;;;5119245;28;20413;-46
2022/09/26 03:18:46;;;;;;;8.90;7.27;;;11.20;99.90;;;;;;5120785;28;20443;-45
2022/09/26 03:21:13;;;;;;;7.87;7.07;;;11.20;99.90;;;;;;5102622;28;20414;-44
2022/09/26 03:23:39;;;;;;;7.97;7.27;;;11.20;99.90;;;;;;5120438;28;20847;-45
2022/09/26 03:26:13;;;;;;;7.13;6.50;;;11.20;99.90;;;;;;5120329;28;20433;-45
2022/09/26 03:28:38;;;;;;;8.40;7.53;;;11.20;99.90;;;;;;5102445;28;20267;-46
2022/09/26 03:31:04;;;;;;;7.80;7.10;;;11.20;99.90;;;;;;5119558;28;20588;-47
2022/09/26 03:33:31;;;;;;;8.53;7.60;;;11.20;99.90;;;;;;5120173;28;20188;-45
2022/09/26 03:35:58;;;;;;;7.07;6.33;;;11.20;99.90;;;;;;5120524;28;20706;-46
2022/09/26 03:38:27;;;;;;;9.03;8.10;;;11.20;99.90;;;;;;5119774;28;20431;-46
2022/09/26 03:40:52;;;;;;;8.67;7.80;;;11.20;99.90;;;;;;5119237;28;20414;-47
2022/09/26 03:43:18;;;;;;;7.87;7.17;;;11.20;99.90;;;;;;5119478;28;20425;-46
2022/09/26 03:45:43;;;;;;;6.93;6.33;;;11.20;99.90;;;;;;5118758;28;20462;-48
2022/09/26 03:48:09;;;;;;;7.73;7.00;;;11.20;99.90;;;;;;5117885;28;20195;-46
2022/09/26 03:50:35;;;;;;;7.03;6.33;;;11.20;99.90;;;;;;5117820;28;20264;-44
2022/09/26 03:53:01;;;;;;;7.20;6.43;;;11.20;99.90;;;;;;5117608;28;20414;-46
2022/09/26 03:55:27;;;;;;;6.97;6.37;;;11.20;99.90;;;;;;5117719;28;20244;-45
2022/09/26 03:57:52;;;;;;;8.17;6.80;;;11.20;99.90;;;;;;5118107;28;20265;-46
2022/09/26 04:00:18;;;;;;;8.33;7.53;;;11.20;99.90;;;;;;5118440;28;20437;-44
2022/09/26 04:02:43;;;;;;;8.53;7.73;;;11.20;99.90;;;;;;5118333;28;20421;-47
2022/09/26 04:05:09;;;;;;;8.47;7.67;;;11.20;99.90;;;;;;5119551;28;20188;-44
2022/09/26 04:07:35;;;;;;;7.77;7.07;;;11.20;99.90;;;;;;5118429;28;20175;-46
2022/09/26 04:10:00;;;;;;;8.37;6.93;;;11.20;99.90;;;;;;5116874;28;20294;-50
2022/09/26 04:12:26;;;;;;;7.60;6.90;;;11.20;99.90;;;;;;5116144;28;20236;-45
2022/09/26 04:14:53;;;;;;;8.70;7.90;;;11.10;99.90;;;;;;5113448;28;20472;-47
2022/09/26 04:17:18;;;;;;;7.30;6.70;;;11.10;99.90;;;;;;5115080;28;20417;-44
2022/09/26 04:19:44;;;;;;;7.43;6.73;;;11.10;99.90;;;;;;5112383;28;20422;-44
2022/09/26 04:22:09;;;;;;;7.50;6.80;;;11.20;99.90;;;;;;5112410;28;20182;-44
2022/09/26 04:24:35;;;;;;;7.23;6.53;;;11.20;99.90;;;;;;5113984;28;20235;-45
2022/09/26 04:27:02;;;;;;;7.63;6.90;;;11.10;99.90;;;;;;5114209;28;20185;-45
2022/09/26 04:29:28;;;;;;;7.00;6.30;;;11.10;99.90;;;;;;5094790;28;20181;-45
2022/09/26 04:31:53;;;;;;;7.03;6.37;;;11.10;99.90;;;;;;5112862;28;20684;-44
2022/09/26 04:34:20;;;;;;;7.80;7.10;;;11.10;99.90;;;;;;5111962;28;20518;-46
2022/09/26 04:36:47;;;;;;;7.17;6.57;;;11.10;99.90;;;;;;5094458;28;20554;-46
2022/09/26 04:39:13;;;;;;;8.10;7.40;;;11.10;99.90;;;;;;5113576;28;20426;-45
2022/09/26 04:41:38;;;;;;;6.90;6.20;;;11.10;99.90;;;;;;5113984;28;20420;-46
2022/09/26 04:44:04;;;;;;;6.83;6.20;;;11.10;99.90;;;;;;5112868;28;20198;-44
2022/09/26 04:46:30;;;;;;;7.87;7.17;;;11.00;99.90;;;;;;5094537;28;20570;-45
2022/09/26 04:48:57;;;;;;;6.53;5.93;;;11.00;99.90;;;;;;5113859;28;20176;-45
2022/09/26 04:51:24;;;;;;;6.90;6.30;;;11.00;99.90;;;;;;5114439;28;20252;-44
2022/09/26 04:53:50;;;;;;;7.83;7.03;;;11.00;99.90;;;;;;5113194;28;20487;-46
2022/09/26 04:56:17;;;;;;;7.47;6.77;;;11.00;99.90;;;;;;5114198;28;20406;-45
2022/09/26 04:58:43;;;;;;;6.83;6.23;;;11.00;99.90;;;;;;5114788;28;20437;-45
2022/09/26 05:01:14;;;;;;;8.10;6.10;;;11.00;99.90;;;;;;5095245;28;20482;-43
2022/09/26 05:03:40;;;;;;;7.33;6.63;;;11.00;99.90;;;;;;5114375;28;20931;-44
2022/09/26 05:06:07;;;;;;;7.63;6.93;;;11.00;99.90;;;;;;5113651;28;20430;-43
2022/09/26 05:08:34;;;;;;;6.60;6.00;;;10.90;99.90;;;;;;5113094;28;20417;-43
2022/09/26 05:11:01;;;;;;;7.00;5.97;;;10.90;99.90;;;;;;5092312;28;20464;-45
2022/09/26 05:13:27;;;;;;;7.30;6.43;;;10.80;99.90;;;;;;5111337;28;20405;-46
2022/09/26 05:15:54;;;;;;;6.07;5.53;;;10.80;99.90;;;;;;5093818;28;20417;-44
2022/09/26 05:18:22;;;;;;;6.83;6.23;;;10.70;99.90;;;;;;5111303;28;20494;-46
2022/09/26 05:20:48;;;;;;;6.27;5.67;;;10.70;99.90;;;;;;5094791;28;20501;-45
2022/09/26 05:28:43;;;;;;;6.40;5.90;;;10.60;99.90;;;;;;5094216;28;20488;-44
2022/09/26 05:31:09;;;;;;;5.97;5.47;;;10.50;99.90;;;;;;5109544;28;20459;-44
2022/09/26 05:33:36;;;;;;;6.93;6.00;;;10.50;99.90;;;;;;5112303;28;20904;-45
2022/09/26 05:36:02;;;;;;;7.60;5.73;;;10.50;99.90;;;;;;5114400;28;20173;-42
2022/09/26 05:38:28;;;;;;;6.13;5.53;;;10.50;99.90;;;;;;5095307;28;20485;-44
2022/09/26 05:40:56;;;;;;;5.40;5.00;;;10.50;99.90;;;;;;5113165;28;20913;-43
2022/09/26 05:43:32;;;;;;;6.07;5.57;;;10.50;99.90;;;;;;5113697;28;20211;-47
2022/09/26 05:45:58;;;;;;;7.07;5.50;;;10.50;99.90;;;;;;5111938;28;20458;-43
2022/09/26 05:48:25;;;;;;;8.80;6.10;;;10.50;99.90;;;;;;5109759;28;20831;-43
2022/09/26 05:50:50;;;;;;;5.80;5.20;;;10.50;99.90;;;;;;5110348;28;20457;-44
2022/09/26 05:53:18;;;;;;;5.93;5.43;;;10.60;99.90;;;;;;5110314;28;20410;-47
2022/09/26 05:55:48;;;;;;;6.03;5.30;;;10.60;99.90;;;;;;5110633;28;20664;-42
2022/09/26 05:58:14;;;;;;;5.70;5.20;;;10.70;99.90;;;;;;5111078;28;20486;-42
2022/09/26 06:00:40;;;;;;;6.90;6.17;;;10.70;99.90;;;;;;5110110;28;20428;-43
2022/09/26 06:03:05;;;;;;;6.60;5.80;;;10.80;99.90;;;;;;5111446;28;20415;-44
2022/09/26 06:05:32;;;;;;;5.97;5.17;;;10.90;99.90;;;;;;5110984;28;20611;-45
2022/09/26 06:08:00;;;;;;;5.43;4.90;;;11.00;99.90;;;;;;5113152;28;20183;-42
2022/09/26 06:10:26;;;;;;;5.53;5.10;;;11.10;99.90;;;;;;5111711;28;20486;-44
2022/09/26 06:12:52;;;;;;;5.10;4.60;;;11.20;99.90;;;;;;5112856;28;20406;-44
2022/09/26 06:15:18;;;;;;;7.47;4.47;;;11.30;99.90;;;;;;5113211;28;20801;-42
2022/09/26 06:17:47;;;;;;;7.17;4.93;;;11.40;99.90;;;;;;5093209;28;20548;-42
2022/09/26 06:20:12;;;;;;;7.27;5.90;;;11.50;99.90;;;;;;5090638;28;20241;-41
2022/09/26 06:22:42;;;;;;;7.93;6.60;;;11.50;99.90;;;;;;5116119;28;21034;-42
2022/09/26 06:25:08;;;;;;;6.37;5.60;;;11.60;99.80;;;;;;5121764;28;20266;-42
2022/09/26 06:27:37;;;;;;;5.77;4.80;;;11.70;99.70;;;;;;5133518;28;20427;-43
2022/09/26 06:30:06;;;;;;;5.50;5.00;;;11.70;99.60;;;;;;5133940;27;20477;-44
2022/09/26 06:32:32;;;;;;;6.80;5.50;;;11.80;99.50;;;;;;5135934;27;20405;-43
2022/09/26 06:34:58;;;;;;;6.30;4.87;;;11.90;99.50;;;;;;5116871;27;20834;-41
2022/09/26 06:37:23;;;;;;;4.13;3.77;;;12.00;99.30;;;;;;5137946;27;20164;-45
2022/09/26 06:39:49;;;;;;;4.47;4.07;;;12.10;99.20;;;;;;5136417;27;20191;-42
2022/09/26 06:42:15;;;;;;;5.37;3.77;;;12.10;99.20;;;;;;5127857;27;20187;-43
2022/09/26 06:44:41;;;;;;;6.17;5.63;;;12.20;99.10;;;;;;5119870;27;20180;-43
2022/09/26 06:47:07;;;;;;;5.60;4.13;;;12.30;99.10;;;;;;5098798;28;20229;-45
2022/09/26 06:49:33;;;;;;;6.03;5.43;;;12.40;99.10;;;;;;5126446;27;20547;-42
2022/09/26 06:52:01;;;;;;;6.30;5.70;;;12.60;99.10;;;;;;5117786;27;20801;-41
2022/09/26 06:54:27;;;;;;;6.43;5.93;;;12.70;99.00;;;;;;5128630;27;20584;-41
2022/09/26 06:56:52;;;;;;;6.13;5.63;;;12.90;99.00;;;;;;5122959;27;20983;-42
2022/09/26 06:59:18;;;;;;;5.33;4.83;;;13.10;98.90;;;;;;5138535;27;20243;-41
2022/09/26 07:01:46;;;;;;;4.80;4.40;;;13.40;98.70;;;;;;5137521;27;20258;-44
2022/09/26 07:04:14;;;;;;;4.47;4.17;;;13.70;98.30;;;;;;5136378;27;20624;-43
2022/09/26 07:06:41;;;;;;;5.30;4.80;;;13.90;97.70;;;;;;5136434;27;20417;-46
2022/09/26 07:09:07;;;;;;;4.30;4.00;;;14.10;97.20;;;;;;5137313;27;20470;-44
2022/09/26 07:11:33;;;;;;;3.77;3.37;;;14.20;97.00;;;;;;5137624;27;21088;-43
2022/09/26 07:14:00;;;;;;;4.30;3.70;;;14.40;96.70;;;;;;5137875;27;20400;-44
2022/09/26 07:16:27;;;;;;;5.00;4.13;;;14.50;96.40;;;;;;5138921;27;20167;-42
2022/09/26 07:18:54;;;;;;;3.90;3.27;;;14.60;96.20;;;;;;5138335;27;20401;-43
2022/09/26 07:21:19;;;;;;;4.60;4.20;;;14.70;96.10;;;;;;5137863;27;20436;-42
2022/09/26 07:23:45;;;;;;;3.80;3.50;;;14.80;95.90;;;;;;5136846;27;20812;-42
2022/09/26 07:26:10;;;;;;;3.77;3.37;;;14.90;95.90;;;;;;5137341;27;20183;-44
2022/09/26 07:28:37;;;;;;;4.50;3.77;;;15.00;95.70;;;;;;5137815;27;20213;-41
2022/09/26 07:31:03;;;;;;;4.07;3.67;;;15.10;95.60;;;;;;5137707;27;20484;-43
2022/09/26 07:33:28;;;;;;;4.10;3.43;;;15.20;95.50;;;;;;5138446;27;20408;-42
2022/09/26 07:35:56;;;;;;;4.33;3.97;;;15.30;95.20;;;;;;5126733;27;20447;-46
2022/09/26 07:38:24;;;;;;;3.53;3.23;;;15.40;95.00;;;;;;5117234;28;20204;-44
2022/09/26 07:40:53;;;;;;;5.20;3.30;;;15.40;94.70;;;;;;5116354;28;20468;-44
2022/09/26 07:43:21;;;;;;;3.47;3.17;;;15.50;94.70;;;;;;5101898;27;20433;-48
2022/09/26 07:51:19;;;;;;;2.80;2.20;;;16.50;98.80;;;;;;5137945;27;20595;-50
2022/09/26 07:53:45;;;;;;;2.67;1.90;;;17.00;98.10;;;;;;5118617;27;20846;-44
2022/09/26 07:56:11;;;;;;;2.80;2.50;;;17.50;96.90;;;;;;5137394;27;20285;-44
2022/09/26 07:58:40;;;;;;;3.20;2.60;;;17.80;95.80;;;;;;5138453;27;20235;-45
2022/09/26 08:01:10;;;;;;;3.37;2.97;;;18.00;94.10;;;;;;5118218;27;20428;-42
2022/09/26 08:03:41;;;;;;;4.07;3.03;;;18.00;93.00;;;;;;5106617;28;20995;-45
2022/09/26 08:06:07;;;;;;;2.67;2.47;;;17.90;91.80;;;;;;5116781;28;20411;-44
2022/09/26 08:08:34;;;;;;;4.17;3.43;;;17.90;91.30;;;;;;5117252;28;20426;-42
2022/09/26 08:11:00;;;;;;;3.90;3.43;;;17.90;90.80;;;;;;5117468;28;20895;-45
2022/09/26 08:13:27;;;;;;;5.23;3.50;;;17.90;90.20;;;;;;5116732;28;20533;-43
2022/09/26 08:15:53;;;;;;;3.33;2.80;;;18.00;89.50;;;;;;5116740;28;20533;-45
2022/09/26 08:18:19;;;;;;;2.90;2.70;;;18.20;89.50;;;;;;5114709;28;20437;-45
2022/09/26 08:20:46;;;;;;;3.33;2.83;;;18.60;88.90;;;;;;5114920;28;20875;-43
2022/09/26 08:23:15;;;;;;;4.30;3.10;;;18.90;87.40;;;;;;5116890;28;21021;-41
2022/09/26 08:25:41;;;;;;;4.47;3.10;;;19.40;86.40;;;;;;5116886;28;20830;-43
2022/09/26 08:28:07;;;;;;;4.30;3.00;;;19.90;84.50;;;;;;5117160;28;20441;-43
2022/09/26 08:30:32;;;;;;;4.87;3.17;;;20.70;82.10;;;;;;5118302;27;20256;-43
2022/09/26 08:33:00;;;;;;;4.93;3.07;;;21.30;78.10;;;;;;5136252;27;20732;-45
2022/09/26 08:35:32;;;;;;;3.30;2.70;;;21.60;75.60;;;;;;5136115;27;20237;-44
2022/09/26 08:38:01;;;;;;;3.03;2.73;;;21.60;72.80;;;;;;5135922;27;20433;-43
2022/09/26 08:40:32;;;;;;;4.27;2.97;;;21.70;71.30;;;;;;5134901;27;20420;-44
2022/09/26 08:43:03;;;;;;;2.73;2.50;;;22.00;70.20;;;;;;5134487;27;20464;-44
2022/09/26 08:46:30;;;;;;;3.37;3.00;;;22.40;68.20;;;;;;5118001;27;20445;-42
2022/09/26 08:49:16;;;;;;;3.40;3.10;;;23.00;66.70;;;;;;5135328;27;20430;-43
2022/09/26 08:51:45;;;;;;;3.37;2.70;;;23.90;63.20;;;;;;5135555;27;20491;-43
2022/09/26 08:54:26;;;;;;;3.20;2.90;;;25.30;59.20;;;;;;5136311;27;20901;-43
2022/09/26 08:56:56;;;;;;;4.30;2.80;;;26.00;57.00;;;;;;5137452;27;20801;-46
2022/09/26 08:59:22;;;;;;;3.20;2.20;;;27.50;54.30;;;;;;5127976;27;20552;-44
2022/09/26 09:01:48;;;;;;;4.23;3.10;;;29.20;51.00;;;;;;5114756;28;20911;-44
2022/09/26 09:04:16;;;;;;;3.53;3.23;;;30.70;47.20;;;;;;5115590;28;20203;-44
2022/09/26 09:06:42;;;;;;;4.10;3.07;;;31.60;43.80;;;;;;5114606;28;20477;-46
2022/09/26 09:09:11;;;;;;;3.10;2.80;;;31.80;42.00;;;;;;5113367;28;20514;-43
2022/09/26 09:12:10;;;;;;;3.40;3.10;;;30.80;41.60;;;;;;5093611;28;20461;-45
2022/09/26 09:14:39;;;;;;;2.83;2.53;;;29.40;42.20;;;;;;5134420;27;20441;-42
2022/09/26 09:17:19;;;;;;;3.20;2.90;;;29.80;42.70;;;;;;5136753;27;20420;-44
2022/09/26 09:20:15;;;;;;;3.70;2.23;;;31.10;42.10;;;;;;5116600;27;20421;-42
2022/09/26 09:22:59;;;;;;;3.50;2.53;;;32.40;40.30;;;;;;5098125;28;20875;-45
2022/09/26 09:25:40;;;;;;;2.30;2.10;;;33.30;38.20;;;;;;5114662;28;20841;-44
2022/09/26 09:28:11;;;;;;;2.73;2.23;;;33.80;37.00;;;;;;5114327;28;20783;-45
2022/09/26 09:31:02;;;;;;;3.27;2.77;;;33.90;36.30;;;;;;5112623;28;20469;-43
2022/09/26 09:33:33;;;;;;;4.83;2.53;;;34.10;35.40;;;;;;5096091;28;20556;-44
2022/09/26 09:36:16;;;;;;;3.60;2.10;;;34.20;34.60;;;;;;5097155;28;20402;-43
2022/09/26 09:38:45;;;;;;;2.53;1.63;;;34.30;35.10;;;;;;5115043;28;20436;-44
2022/09/26 09:41:13;;;;;;;2.20;2.00;;;34.40;36.30;;;;;;5115604;28;20407;-43
2022/09/26 09:43:40;;;;;;;4.07;2.10;;;34.50;36.20;;;;;;5097457;28;20561;-43
2022/09/26 09:46:28;;;;;;;2.30;2.10;;;34.70;35.20;;;;;;5117094;28;20428;-42
2022/09/26 09:49:10;;;;;;;4.23;1.87;;;35.00;35.20;;;;;;5115824;28;20439;-43
2022/09/26 09:52:11;;;;;;;4.30;1.77;;;35.40;35.50;;;;;;5097998;28;21006;-43
2022/09/26 09:55:04;;;;;;;2.60;2.03;;;34.80;35.00;;;;;;5117304;28;20512;-46
2022/09/26 09:57:41;;;;;;;2.77;1.87;;;33.70;34.90;;;;;;5117073;28;20429;-47
2022/09/26 10:00:21;;;;;;;2.50;1.97;;;32.40;35.00;;;;;;5097852;28;20680;-43
2022/09/26 10:03:00;;;;;;;2.10;1.90;;;30.80;35.00;;;;;;5098229;28;20486;-42
2022/09/26 10:05:41;;;;;;;3.00;2.40;;;30.00;36.50;;;;;;5119042;28;20420;-45
2022/09/26 10:08:13;;;;;;;3.97;2.50;;;30.20;36.70;;;;;;5121914;28;20484;-47
2022/09/26 10:10:43;;;;;;;3.13;1.90;;;31.30;36.80;;;;;;5101791;28;20560;-42
2022/09/26 10:13:09;;;;;;;2.23;2.00;;;32.00;36.20;;;;;;5119502;28;20405;-44
2022/09/26 10:15:39;;;;;;;3.23;1.90;;;32.70;36.70;;;;;;5116907;28;20586;-44
2022/09/26 10:18:17;;;;;;;1.90;1.60;;;33.00;36.30;;;;;;5117194;27;20446;-44
2022/09/26 10:21:15;;;;;;;2.93;1.73;;;34.10;35.50;;;;;;5139410;27;20664;-45
2022/09/26 10:23:43;;;;;;;2.27;1.60;;;36.20;34.30;;;;;;5128663;27;20866;-44
2022/09/26 10:26:11;;;;;;;2.30;2.03;;;38.10;31.80;;;;;;5119895;27;20738;-43
2022/09/26 10:28:56;;;;;;;2.30;1.57;;;39.50;30.20;;;;;;5129460;27;20441;-43
2022/09/26 10:31:36;;;;;;;2.70;1.77;;;40.20;29.00;;;;;;5115856;28;20463;-44
2022/09/26 10:34:23;;;;;;;1.93;1.30;;;39.70;29.30;;;;;;5098305;28;20492;-42
2022/09/26 10:36:48;;;;;;;1.63;1.23;;;39.30;28.80;;;;;;5099499;28;20410;-44
2022/09/26 10:42:21;;;;;;;2.10;1.47;;;37.20;29.60;;;;;;5118275;28;20182;-45
2022/09/26 10:44:49;;;;;;;1.83;1.37;;;36.60;29.70;;;;;;5117069;28;20436;-41
2022/09/26 10:47:19;;;;;;;2.37;1.50;;;36.80;29.90;;;;;;5116473;28;20511;-42
2022/09/26 10:50:02;;;;;;;1.63;1.43;;;37.10;30.10;;;;;;5118048;27;20476;-44
2022/09/26 10:52:38;;;;;;;2.40;1.80;;;36.60;29.90;;;;;;5100976;28;20416;-47
2022/09/26 10:55:45;;;;;;;2.27;1.40;;;36.00;29.70;;;;;;5100447;28;20832;-44
2022/09/26 10:58:17;;;;;;;2.07;1.50;;;35.30;29.00;;;;;;5118205;28;20434;-47
2022/09/26 11:00:44;;;;;;;2.50;1.60;;;35.30;29.70;;;;;;5118831;28;20426;-44
2022/09/26 11:03:13;;;;;;;2.20;1.87;;;34.30;29.90;;;;;;5101627;28;20425;-47
2022/09/26 11:05:57;;;;;;;1.80;1.40;;;33.20;30.00;;;;;;5118278;28;20485;-44
2022/09/26 11:08:28;;;;;;;1.67;1.57;;;32.20;31.20;;;;;;5119216;28;20753;-43
2022/09/26 11:10:58;;;;;;;2.03;1.27;;;31.40;31.60;;;;;;5117704;28;20429;-44
2022/09/26 11:13:26;;;;;;;2.23;1.40;;;31.30;32.00;;;;;;5099559;28;20414;-43
2022/09/26 11:15:52;;;;;;;1.70;1.20;;;30.80;31.50;;;;;;5098958;28;20409;-42
2022/09/26 11:18:26;;;;;;;2.13;1.10;;;30.00;31.70;;;;;;5112264;27;20412;-45
2022/09/26 11:20:54;;;;;;;1.60;1.30;;;29.20;32.60;;;;;;5118269;27;20422;-45
2022/09/26 11:23:28;;;;;;;2.07;1.30;;;28.30;33.40;;;;;;5117933;27;20817;-43
2022/09/26 11:26:09;;;;;;;1.60;1.23;;;27.60;34.20;;;;;;5117700;27;20406;-42
2022/09/26 11:28:44;;;;;;;2.67;1.70;;;27.60;35.50;;;;;;5135445;27;20422;-42
2022/09/26 11:31:26;;;;;;;2.37;1.67;;;29.20;35.30;;;;;;5116116;27;20471;-44
2022/09/26 11:33:52;;;;;;;3.27;1.73;;;31.60;34.20;;;;;;5134706;27;20488;-43
2022/09/26 11:36:31;;;;;;;1.60;1.03;;;34.00;33.30;;;;;;5134157;27;20478;-44
2022/09/26 11:39:12;;;;;;;2.07;1.53;;;36.40;31.20;;;;;;5133754;27;20500;-44
2022/09/26 11:42:20;;;;;;;1.60;1.30;;;37.20;28.80;;;;;;5134730;27;20699;-44
2022/09/26 11:44:59;;;;;;;2.50;1.50;;;35.40;29.20;;;;;;5123744;27;20468;-45
2022/09/26 11:47:45;;;;;;;1.67;1.33;;;33.40;29.30;;;;;;5096199;28;20383;-43
2022/09/26 11:50:30;;;;;;;3.27;1.57;;;31.30;31.00;;;;;;5115883;28;20436;-44
2022/09/26 11:53:46;;;;;;;1.80;1.30;;;29.70;33.10;;;;;;5114874;28;21021;-45
2022/09/26 11:56:34;;;;;;;2.17;1.40;;;28.70;33.60;;;;;;5030712;28;20484;-45
2022/09/26 11:59:23;;;;;;;1.33;1.03;;;27.60;34.40;;;;;;5014142;28;20491;-44
2022/09/26 12:02:07;;;;;;;1.93;1.37;;;27.20;35.20;;;;;;5095989;28;20661;-45
2022/09/26 12:05:00;;;;;;;1.73;1.03;;;27.30;35.40;;;;;;5114807;28;20529;-46
2022/09/26 12:07:43;;;;;;;1.87;1.50;;;29.70;34.20;;;;;;5115243;28;20385;-43
2022/09/26 12:10:38;;;;;;;3.53;1.67;;;32.50;33.10;;;;;;5114821;28;20459;-43
2022/09/26 12:13:19;;;;;;;3.63;1.43;;;35.50;31.20;;;;;;5118305;27;20472;-46
2022/09/26 12:16:13;;;;;;;1.80;1.50;;;38.20;29.00;;;;;;5116938;28;20690;-45
2022/09/26 12:19:04;;;;;;;2.00;1.37;;;39.80;27.50;;;;;;5116991;28;20432;-45
2022/09/26 12:24:53;;;;;;;2.00;1.53;;;40.90;25.40;;;;;;5116581;28;20494;-45
2022/09/26 12:27:48;;;;;;;1.93;1.13;;;38.70;26.10;;;;;;5115665;28;20417;-43
2022/09/26 12:30:17;;;;;;;1.70;1.20;;;36.70;26.90;;;;;;5115188;28;20553;-43
2022/09/26 12:33:21;;;;;;;1.70;0.90;;;34.70;27.90;;;;;;5115636;28;20492;-44
2022/09/26 12:36:05;;;;;;;5.60;1.70;;;33.00;28.80;;;;;;5059812;28;20394;-44
2022/09/26 12:39:08;;;;;;;2.20;1.30;;;31.30;29.70;;;;;;5097828;28;20402;-41
2022/09/26 12:41:41;;;;;;;2.13;1.20;;;29.90;30.60;;;;;;5101039;27;20435;-45
2022/09/26 12:44:22;;;;;;;1.80;1.30;;;28.80;31.70;;;;;;5097163;28;20411;-42
2022/09/26 12:46:51;;;;;;;2.00;1.40;;;27.90;32.60;;;;;;5116237;28;20398;-42
2022/09/26 12:49:57;;;;;;;2.30;1.07;;;27.30;33.10;;;;;;5098615;28;20766;-43
2022/09/26 12:52:53;;;;;;;2.20;1.40;;;26.70;33.90;;;;;;5032989;28;20408;-43
2022/09/26 12:55:43;;;;;;;1.53;1.00;;;26.00;34.20;;;;;;5115508;28;20532;-42
2022/09/26 12:58:18;;;;;;;1.60;0.93;;;25.20;34.40;;;;;;5097600;28;20475;-42
2022/09/26 13:00:53;;;;;;;1.10;0.67;;;24.40;35.20;;;;;;5116085;28;20459;-44
2022/09/26 13:03:43;;;;;;;1.50;0.80;;;23.80;36.20;;;;;;5115560;28;20404;-42
2022/09/26 13:06:41;;;;;;;1.60;0.70;;;23.30;36.80;;;;;;5115636;28;20440;-41
2022/09/26 13:09:52;;;;;;;1.17;0.80;;;22.90;37.20;;;;;;5117084;27;20478;-44
2022/09/26 13:12:20;;;;;;;1.57;0.87;;;22.70;38.20;;;;;;5135293;27;20494;-41
2022/09/26 13:15:03;;;;;;;1.50;0.67;;;22.70;38.10;;;;;;5127656;27;20483;-43
2022/09/26 13:17:44;;;;;;;1.70;0.80;;;22.70;37.80;;;;;;5112477;28;20421;-44
2022/09/26 13:20:14;;;;;;;1.37;0.80;;;22.90;37.70;;;;;;5096193;28;20402;-43
2022/09/26 13:23:04;;;;;;;1.63;0.80;;;23.60;37.50;;;;;;5109273;28;20478;-44
2022/09/26 13:25:43;;;;;;;1.23;0.80;;;24.10;36.80;;;;;;5102866;28;20468;-43
2022/09/26 13:28:36;;;;;;;1.10;0.60;;;24.60;36.60;;;;;;5116960;27;20854;-44
2022/09/26 13:31:15;;;;;;;2.73;0.83;;;25.40;36.30;;;;;;5116176;28;20509;-43
2022/09/26 13:33:58;;;;;;;1.20;0.87;;;27.40;36.80;;;;;;5115144;27;20440;-44
2022/09/26 13:36:27;;;;;;;1.73;1.00;;;29.60;34.60;;;;;;5126847;27;20447;-43